Salesville, OH (43778)

7:13 PM EDT on October 31, 2014 (GMT -0400)
OHDOT 82-IR77 MM 36 | Change Station
CLOSE
Current Station
Personal Weather Station
Location: Buffalo, OH
Elevation: 807 ft
Nearby Weather Stations

Elev 807 ft 39.91 °N, 81.53 °W | Updated 54 minutes ago

Rain
Rain
43 °F
Feels Like 43 °F
N
1
Wind Variable Wind from SE
Gusts 6.0 mph

Today
High -- | Low -- °F
--% Chance of Precip.
Yesterday
High -- | Low -- °F
Precip. -- in
7:53 AM 6:24 PM
First Quarter, 60% visible
Pressure 29.88 in
Visibility 7.0 miles
Clouds Mostly Cloudy 2600 ft
Overcast 3900 ft
Windchill 43 °F
Dew Point 43 °F
Humidity 100%
Rainfall -999.00 in
Snow Depth Not available.
UV 0 out of 12
Pollen .10 out of 12
Air Quality Not available.
Flu Activity Not available.
METAR KZZV 312253Z AUTO 00000KT 7SM -RA BKN026 OVC039 07/05 A2987 RMK AO2 SLP117 P0002 T00670050

More Conditions Fewer Conditions

Pressure 29.88 in
Visibility 7.0 miles
Clouds Mostly Cloudy 2600 ft
Overcast 3900 ft
Windchill 43 °F
Dew Point 43 °F
Humidity 100%
Rainfall -999.00 in
Snow Depth Not available.
UV 0 out of 12
Pollen .10 out of 12
Air Quality Not available.
Flu Activity Not available.
METAR KZZV 312253Z AUTO 00000KT 7SM -RA BKN026 OVC039 07/05 A2987 RMK AO2 SLP117 P0002 T00670050

More Conditions Fewer Conditions

10-Day Weather Forecast

Almanac

Astronomy

Oct. 31, 2014 Rise Set
Actual Time
Civil Twilight
Nautical Twilight
Astronomical Twilight
Moon
Length of Visible Light
Length of Day
Tomorrow will be .
, % of the Moon is Illuminated

Today's Extremes

State Highs State Lows

Community

WunderPhotos

Upload Photos

1,766,775 photos uploaded!

WunderBlogs® & News

Nearby

Air Quality

  Air Quality AQ Index Pollutant
Not available.

Snow Depth

Station Depth Elevation

Earthquake Activity

City Distance Mag. Time & Date
Minimum magnitude displayed is 2.5.

Coastal Water Temperatures

Place Temperature

Nearby Weather Stations